createdAt,value
2022-09-20T00:00:40.065Z,97714.16
2022-09-20T00:03:06.586Z,97719.09
2022-09-20T00:05:37.528Z,97714.47
2022-09-20T00:08:04.897Z,97705.00
2022-09-20T00:10:36.022Z,97715.63
2022-09-20T00:13:02.679Z,97712.06
2022-09-20T00:15:29.486Z,97718.84
2022-09-20T00:17:56.205Z,97721.41
2022-09-20T00:20:22.774Z,97718.53
2022-09-20T00:22:49.652Z,97722.22
2022-09-20T00:25:16.790Z,97718.53
2022-09-20T00:27:43.485Z,97714.19
2022-09-20T00:30:10.277Z,97717.38
2022-09-20T00:32:36.681Z,97713.03
2022-09-20T00:35:10.662Z,97710.91
2022-09-20T00:37:38.833Z,97707.75
2022-09-20T00:40:06.911Z,97708.59
2022-09-20T00:42:33.627Z,97705.47
2022-09-20T00:45:03.533Z,97705.47
2022-09-20T00:47:29.927Z,97701.78
2022-09-20T00:49:59.192Z,97696.94
2022-09-20T00:52:26.745Z,97701.91
2022-09-20T00:54:53.810Z,97696.94
2022-09-20T00:57:20.270Z,97696.09
2022-09-20T00:59:47.998Z,97703.84
2022-09-20T01:02:21.283Z,97707.34
2022-09-20T01:04:48.590Z,97703.88
2022-09-20T01:07:16.380Z,97711.78
2022-09-20T01:09:42.873Z,97697.78
2022-09-20T01:12:12.314Z,97694.53
2022-09-20T01:14:39.809Z,97698.50
2022-09-20T01:17:07.330Z,97710.63
2022-09-20T01:19:39.966Z,97699.88
2022-09-20T01:22:12.813Z,97701.28
2022-09-20T01:24:45.603Z,97691.13
2022-09-20T01:27:30.670Z,97699.59
2022-09-20T01:30:02.799Z,97688.06
2022-09-20T01:32:35.576Z,97702.63
2022-09-20T01:35:02.396Z,97696.06
2022-09-20T01:37:38.369Z,97698.13
2022-09-20T01:40:05.018Z,97701.56
2022-09-20T01:42:36.683Z,97694.50
2022-09-20T01:45:09.234Z,97703.00
2022-09-20T01:47:35.625Z,97701.56
2022-09-20T01:50:15.397Z,97695.09
2022-09-20T01:52:41.810Z,97691.94
2022-09-20T01:55:20.550Z,97697.00
2022-09-20T01:58:02.251Z,97698.97
2022-09-20T02:00:39.033Z,97695.84
2022-09-20T02:03:23.950Z,97687.53
2022-09-20T02:06:02.763Z,97679.78
2022-09-20T02:08:38.021Z,97695.69
2022-09-20T02:11:10.574Z,97693.91
2022-09-20T02:13:40.066Z,97695.06
2022-09-20T02:16:06.629Z,97687.31
2022-09-20T02:18:45.378Z,97692.50
2022-09-20T02:21:32.608Z,97685.75
2022-09-20T02:24:08.970Z,97678.72
2022-09-20T02:26:35.358Z,97676.72
2022-09-20T02:29:01.783Z,97681.25
2022-09-20T02:31:31.084Z,97669.63
2022-09-20T02:34:06.601Z,97665.94
2022-09-20T02:36:52.020Z,97672.78
2022-09-20T02:39:24.797Z,97678.41
2022-09-20T02:42:03.256Z,97674.75
2022-09-20T02:44:42.009Z,97679.81
2022-09-20T02:47:20.868Z,97674.31
2022-09-20T02:49:56.191Z,97677.44
2022-09-20T02:52:49.445Z,97672.06
2022-09-20T02:55:16.146Z,97674.16
2022-09-20T02:57:46.941Z,97671.91
2022-09-20T03:00:25.193Z,97675.47
2022-09-20T03:03:11.858Z,97674.19
2022-09-20T03:05:53.385Z,97678.97
2022-09-20T03:08:28.949Z,97677.84
2022-09-20T03:11:01.450Z,97680.25
2022-09-20T03:13:27.842Z,97681.41
2022-09-20T03:16:04.148Z,97672.78
2022-09-20T03:18:56.086Z,97677.16
2022-09-20T03:21:36.429Z,97676.44
2022-09-20T03:24:16.345Z,97675.59
2022-09-20T03:26:42.840Z,97676.84
2022-09-20T03:29:29.516Z,97682.66
2022-09-20T03:31:56.044Z,97676.44
2022-09-20T03:34:34.574Z,97678.28
2022-09-20T03:37:19.728Z,97673.88
2022-09-20T03:39:59.829Z,97672.34
2022-09-20T03:42:28.431Z,97678.16
2022-09-20T03:45:13.700Z,97675.31
2022-09-20T03:47:40.137Z,97686.19
2022-09-20T03:50:23.236Z,97675.31
2022-09-20T03:52:57.694Z,97674.44
2022-09-20T03:55:30.334Z,97671.91
2022-09-20T03:57:59.928Z,97671.34
2022-09-20T04:00:47.915Z,97682.41
2022-09-20T04:03:22.731Z,97673.19
2022-09-20T04:06:16.682Z,97689.03
2022-09-20T04:09:01.233Z,97673.34
2022-09-20T04:11:28.796Z,97686.19
2022-09-20T04:14:02.958Z,97685.75
2022-09-20T04:16:32.434Z,97687.47
2022-09-20T04:19:11.581Z,97687.75
2022-09-20T04:21:41.793Z,97699.06
2022-09-20T04:24:08.194Z,97694.00
2022-09-20T04:26:40.901Z,97687.19
2022-09-20T04:29:26.509Z,97703.44
2022-09-20T04:32:01.511Z,97693.25
2022-09-20T04:35:06.809Z,97701.88
2022-09-20T04:37:35.541Z,97691.13
2022-09-20T04:40:21.029Z,97704.00
2022-09-20T04:42:51.742Z,97704.44
2022-09-20T04:45:37.186Z,97705.28
2022-09-20T04:48:22.517Z,97706.97
2022-09-20T04:50:55.090Z,97709.53
2022-09-20T04:53:21.670Z,97713.19
2022-09-20T04:56:02.003Z,97716.31
2022-09-20T04:58:40.537Z,97715.44
2022-09-20T05:01:17.112Z,97725.38
2022-09-20T05:04:02.738Z,97728.69
2022-09-20T05:06:38.846Z,97733.78
2022-09-20T05:09:16.361Z,97736.03
2022-09-20T05:12:18.420Z,97737.63
2022-09-20T05:14:59.358Z,97732.41
2022-09-20T05:17:44.824Z,97739.44
2022-09-20T05:20:38.329Z,97740.00
2022-09-20T05:23:23.934Z,97734.38
2022-09-20T05:25:56.451Z,97727.75
2022-09-20T05:28:28.680Z,97743.72
2022-09-20T05:31:02.919Z,97731.59
2022-09-20T05:33:37.821Z,97737.81
2022-09-20T05:36:32.334Z,97737.53
2022-09-20T05:39:03.513Z,97740.94
2022-09-20T05:41:37.770Z,97752.47
2022-09-20T05:44:28.858Z,97749.88
2022-09-20T05:47:15.502Z,97748.47
2022-09-20T05:49:51.230Z,97755.53
2022-09-20T05:52:47.153Z,97765.19
2022-09-20T05:55:19.758Z,97766.28
2022-09-20T05:57:56.551Z,97767.41
2022-09-20T06:00:29.016Z,97767.66
2022-09-20T06:03:01.569Z,97772.06
2022-09-20T06:05:47.111Z,97775.34
2022-09-20T06:08:13.501Z,97773.13
2022-09-20T06:10:55.297Z,97770.81
2022-09-20T06:13:33.553Z,97776.22
2022-09-20T06:16:01.544Z,97764.31
2022-09-20T06:18:47.891Z,97768.00
2022-09-20T06:21:31.961Z,97772.53
2022-09-20T06:24:00.140Z,97771.84
2022-09-20T06:26:29.318Z,97766.25
2022-09-20T06:29:00.609Z,97762.09
2022-09-20T06:31:27.356Z,97774.81
2022-09-20T06:34:02.652Z,97769.16
2022-09-20T06:36:55.367Z,97768.53
2022-09-20T06:39:43.373Z,97772.53
2022-09-20T06:42:10.564Z,97762.19
2022-09-20T06:44:43.236Z,97769.56
2022-09-20T06:47:13.229Z,97765.53
2022-09-20T06:49:42.688Z,97757.25
2022-09-20T06:52:14.211Z,97768.56
2022-09-20T06:54:43.474Z,97774.59
2022-09-20T06:57:10.462Z,97763.63
2022-09-20T06:59:36.933Z,97767.81
2022-09-20T07:02:03.601Z,97776.56
2022-09-20T07:04:30.109Z,97771.56
2022-09-20T07:07:00.070Z,97778.13
2022-09-20T07:09:26.578Z,97788.47
2022-09-20T07:11:53.017Z,97789.06
2022-09-20T07:14:19.432Z,97788.19
2022-09-20T07:16:45.927Z,97791.00
2022-09-20T07:19:12.362Z,97795.41
2022-09-20T07:21:38.822Z,97791.44
2022-09-20T07:24:05.368Z,97790.63
2022-09-20T07:26:31.949Z,97801.28
2022-09-20T07:28:59.167Z,97795.16
2022-09-20T07:31:26.672Z,97788.59
2022-09-20T07:33:53.263Z,97795.16
2022-09-20T07:36:19.800Z,97804.06
2022-09-20T07:38:50.376Z,97795.72
2022-09-20T07:41:19.047Z,97788.59
2022-09-20T07:43:45.659Z,97789.19
2022-09-20T07:46:13.641Z,97792.84
2022-09-20T07:48:40.653Z,97790.25
2022-09-20T07:51:09.029Z,97794.19
2022-09-20T07:53:36.323Z,97802.75
2022-09-20T07:56:05.550Z,97797.91
2022-09-20T07:58:33.959Z,97803.59
2022-09-20T08:01:01.983Z,97799.00
2022-09-20T08:03:33.056Z,97800.72
2022-09-20T08:06:07.151Z,97800.59
2022-09-20T08:08:37.932Z,97807.25
2022-09-20T08:11:06.565Z,97813.06
2022-09-20T08:16:23.483Z,97803.81
2022-09-20T08:18:57.626Z,97800.13
2022-09-20T08:21:34.385Z,97802.91
2022-09-20T08:24:00.991Z,97797.41
2022-09-20T08:26:28.191Z,97792.00
2022-09-20T08:28:55.941Z,97789.50
2022-09-20T08:31:24.277Z,97790.75
2022-09-20T08:33:51.324Z,97782.28
2022-09-20T08:36:19.530Z,97780.59
2022-09-20T08:41:39.047Z,97770.06
2022-09-20T08:44:14.748Z,97779.91
2022-09-20T08:46:47.527Z,97778.16
2022-09-20T08:49:22.522Z,97778.81
2022-09-20T08:51:50.659Z,97770.81
2022-09-20T08:54:17.659Z,97774.03
2022-09-20T08:56:49.758Z,97778.53
2022-09-20T08:59:18.694Z,97773.25
2022-09-20T09:01:45.805Z,97771.19
2022-09-20T09:04:19.995Z,97775.59
2022-09-20T09:06:46.906Z,97770.47
2022-09-20T09:09:24.638Z,97766.19
2022-09-20T09:11:51.857Z,97760.72
2022-09-20T09:14:57.269Z,97776.41
2022-09-20T09:17:28.041Z,97774.50
2022-09-20T09:19:58.937Z,97771.34
2022-09-20T09:22:25.328Z,97759.53
2022-09-20T09:25:07.118Z,97770.44
2022-09-20T09:27:35.095Z,97768.53
2022-09-20T09:30:01.801Z,97767.63
2022-09-20T09:32:30.892Z,97742.47
2022-09-20T09:35:18.437Z,97749.25
2022-09-20T09:37:52.911Z,97754.88
2022-09-20T09:40:19.736Z,97743.13
2022-09-20T09:42:50.191Z,97731.69
2022-09-20T09:45:27.102Z,97733.47
2022-09-20T09:47:54.678Z,97729.63
2022-09-20T09:50:25.495Z,97728.22
2022-09-20T09:53:02.989Z,97716.88
2022-09-20T09:55:38.209Z,97719.75
2022-09-20T09:58:16.004Z,97711.66
2022-09-20T10:00:46.697Z,97707.25
2022-09-20T10:03:19.398Z,97709.72
2022-09-20T10:06:04.937Z,97695.97
2022-09-20T10:08:43.730Z,97696.47
2022-09-20T10:11:29.196Z,97700.50
2022-09-20T10:13:55.695Z,97701.75
2022-09-20T10:16:29.175Z,97695.03
2022-09-20T10:19:03.434Z,97698.63
2022-09-20T10:21:32.592Z,97696.69
2022-09-20T10:24:04.044Z,97705.50
2022-09-20T10:26:43.953Z,97698.16
2022-09-20T10:29:39.766Z,97690.97
2022-09-20T10:32:06.207Z,97695.38
2022-09-20T10:34:44.960Z,97687.25
2022-09-20T10:37:16.286Z,97690.88
2022-09-20T10:39:45.911Z,97694.50
2022-09-20T10:42:55.090Z,97698.69
2022-09-20T10:48:35.470Z,97688.91
2022-09-20T10:51:20.924Z,97690.72
2022-09-20T10:53:58.896Z,97702.63
2022-09-20T10:56:30.824Z,97690.78
2022-09-20T10:59:17.273Z,97691.88
2022-09-20T11:02:02.836Z,97690.75
2022-09-20T11:04:35.578Z,97694.38
2022-09-20T11:07:10.198Z,97682.69
2022-09-20T11:09:38.939Z,97690.97
2022-09-20T11:12:16.245Z,97688.56
2022-09-20T11:14:48.353Z,97693.94
2022-09-20T11:17:26.847Z,97699.16
2022-09-20T11:20:07.075Z,97701.88
2022-09-20T11:22:43.140Z,97692.63
2022-09-20T11:25:20.024Z,97699.78
2022-09-20T11:27:52.864Z,97698.56
2022-09-20T11:30:19.336Z,97700.34
2022-09-20T11:33:04.610Z,97714.63
2022-09-20T11:35:34.527Z,97718.06
2022-09-20T11:38:18.675Z,97718.75
2022-09-20T11:41:14.231Z,97724.75
2022-09-20T11:43:45.328Z,97714.66
2022-09-20T11:46:15.726Z,97723.47
2022-09-20T11:48:55.504Z,97711.91
2022-09-20T11:51:34.281Z,97716.09
2022-09-20T11:54:04.785Z,97704.91
2022-09-20T11:56:33.914Z,97700.22
2022-09-20T11:59:05.429Z,97702.66
2022-09-20T12:01:37.468Z,97698.25
2022-09-20T12:04:32.875Z,97699.69
2022-09-20T12:07:10.517Z,97695.81
2022-09-20T12:09:43.164Z,97698.72
2022-09-20T12:12:18.478Z,97694.53
2022-09-20T12:14:53.193Z,97698.66
2022-09-20T12:17:38.353Z,97698.09
2022-09-20T12:20:24.758Z,97697.88
2022-09-20T12:22:51.303Z,97702.53
2022-09-20T12:25:38.566Z,97692.00
2022-09-20T12:28:13.720Z,97699.16
2022-09-20T12:30:40.250Z,97702.97
2022-09-20T12:33:18.290Z,97698.75
2022-09-20T12:35:57.999Z,97706.94
2022-09-20T12:38:31.187Z,97706.25
2022-09-20T12:40:58.573Z,97715.31
2022-09-20T12:43:25.409Z,97705.50
2022-09-20T12:45:57.901Z,97711.50
2022-09-20T12:48:27.879Z,97707.97
2022-09-20T12:51:36.891Z,97718.94
2022-09-20T12:54:08.088Z,97714.75
2022-09-20T12:56:39.332Z,97722.72
2022-09-20T12:59:18.597Z,97710.09
2022-09-20T13:01:46.335Z,97708.59
2022-09-20T13:04:32.270Z,97708.97
2022-09-20T13:07:25.150Z,97700.28
2022-09-20T13:09:51.666Z,97703.63
2022-09-20T13:12:19.525Z,97701.28
2022-09-20T13:14:47.173Z,97700.19
2022-09-20T13:17:19.230Z,97699.19
2022-09-20T13:19:46.700Z,97698.34
2022-09-20T13:22:33.000Z,97701.13
2022-09-20T13:25:02.714Z,97699.97
2022-09-20T13:27:34.554Z,97702.34
2022-09-20T13:30:20.222Z,97693.22
2022-09-20T13:32:47.330Z,97706.56
2022-09-20T13:35:24.232Z,97706.28
2022-09-20T13:37:56.474Z,97699.47
2022-09-20T13:40:33.286Z,97697.50
2022-09-20T13:43:21.988Z,97692.94
2022-09-20T13:45:52.221Z,97687.25
2022-09-20T13:48:18.694Z,97686.78
2022-09-20T13:50:49.060Z,97680.19
2022-09-20T13:53:33.549Z,97682.44
2022-09-20T13:56:10.069Z,97675.66
2022-09-20T13:58:39.442Z,97676.06
2022-09-20T14:01:09.197Z,97673.44
2022-09-20T14:03:36.125Z,97670.81
2022-09-20T14:06:07.854Z,97656.66
2022-09-20T14:08:40.589Z,97673.19
2022-09-20T14:11:08.617Z,97674.53
2022-09-20T14:13:40.731Z,97664.63
2022-09-20T14:16:07.814Z,97673.47
2022-09-20T14:18:35.446Z,97670.44
2022-09-20T14:21:02.322Z,97679.66
2022-09-20T14:23:29.762Z,97684.38
2022-09-20T14:26:05.814Z,97687.41
2022-09-20T14:28:32.425Z,97685.69
2022-09-20T14:31:07.293Z,97684.22
2022-09-20T14:33:34.128Z,97691.09
2022-09-20T14:36:00.848Z,97687.25
2022-09-20T14:38:27.562Z,97686.44
2022-09-20T14:40:54.126Z,97693.59
2022-09-20T14:43:20.554Z,97692.06
2022-09-20T14:45:51.888Z,97688.63
2022-09-20T14:48:18.403Z,97682.63
2022-09-20T14:50:46.948Z,97689.38
2022-09-20T14:53:29.601Z,97687.41
2022-09-20T14:56:05.250Z,97684.41
2022-09-20T14:58:32.169Z,97701.31
2022-09-20T15:01:05.698Z,97696.50
2022-09-20T15:03:40.712Z,97691.63
2022-09-20T15:06:11.250Z,97701.22
2022-09-20T15:08:40.774Z,97694.94
2022-09-20T15:11:19.890Z,97699.25
2022-09-20T15:13:46.546Z,97693.44
2022-09-20T15:16:14.638Z,97703.84
2022-09-20T15:18:42.413Z,97718.41
2022-09-20T15:21:10.911Z,97719.66
2022-09-20T15:23:38.830Z,97718.81
2022-09-20T15:26:05.943Z,97720.75
2022-09-20T15:28:33.354Z,97722.81
2022-09-20T15:30:59.861Z,97729.66
2022-09-20T15:33:29.121Z,97728.63
2022-09-20T15:35:55.519Z,97728.72
2022-09-20T15:38:22.805Z,97740.00
2022-09-20T15:40:49.611Z,97741.09
2022-09-20T15:43:17.598Z,97746.19
2022-09-20T15:45:52.795Z,97745.72
2022-09-20T15:48:21.507Z,97755.28
2022-09-20T15:51:07.598Z,97754.38
2022-09-20T15:53:35.420Z,97764.69
2022-09-20T15:56:03.494Z,97757.34
2022-09-20T15:58:35.458Z,97761.81
2022-09-20T16:01:06.333Z,97764.53
2022-09-20T16:03:33.269Z,97765.22
2022-09-20T16:06:04.301Z,97768.44
2022-09-20T16:08:35.137Z,97760.50
2022-09-20T16:11:02.406Z,97762.22
2022-09-20T16:13:28.949Z,97763.06
2022-09-20T16:15:56.006Z,97766.56
2022-09-20T16:18:41.181Z,97766.66
2022-09-20T16:21:08.625Z,97775.22
2022-09-20T16:23:37.309Z,97778.69
2022-09-20T16:26:03.749Z,97783.72
2022-09-20T16:28:30.290Z,97777.38
2022-09-20T16:30:57.433Z,97778.75
2022-09-20T16:33:23.881Z,97778.69
2022-09-20T16:35:50.300Z,97776.66
2022-09-20T16:38:16.724Z,97779.06
2022-09-20T16:40:43.126Z,97778.28
2022-09-20T16:43:09.613Z,97785.19
2022-09-20T16:45:36.170Z,97793.34
2022-09-20T16:48:08.306Z,97801.09
2022-09-20T16:50:35.183Z,97800.81
2022-09-20T16:53:01.686Z,97791.47
2022-09-20T16:55:28.106Z,97802.38
2022-09-20T16:57:54.513Z,97801.63
2022-09-20T17:00:21.808Z,97816.19
2022-09-20T17:02:51.443Z,97810.06
2022-09-20T17:05:17.882Z,97813.72
2022-09-20T17:07:44.667Z,97821.94
2022-09-20T17:10:11.262Z,97831.03
2022-09-20T17:12:46.656Z,97832.25
2022-09-20T17:15:13.655Z,97837.13
2022-09-20T17:17:40.123Z,97842.78
2022-09-20T17:20:07.726Z,97842.91
2022-09-20T17:22:34.234Z,97852.06
2022-09-20T17:25:00.662Z,97850.88
2022-09-20T17:27:27.101Z,97860.38
2022-09-20T17:29:53.558Z,97867.78
2022-09-20T17:32:20.437Z,97862.72
2022-09-20T17:34:46.963Z,97859.69
2022-09-20T17:37:13.444Z,97866.44
2022-09-20T17:39:40.841Z,97870.06
2022-09-20T17:42:07.346Z,97875.19
2022-09-20T17:44:37.543Z,97878.91
2022-09-20T17:47:04.281Z,97870.06
2022-09-20T17:49:31.389Z,97863.63
2022-09-20T17:51:57.850Z,97864.28
2022-09-20T17:54:24.756Z,97876.47
2022-09-20T17:56:53.248Z,97871.00
2022-09-20T17:59:20.278Z,97874.00
2022-09-20T18:01:47.906Z,97879.47
2022-09-20T18:04:14.492Z,97887.16
2022-09-20T18:06:48.530Z,97879.91
2022-09-20T18:09:16.450Z,97883.44
2022-09-20T18:11:46.269Z,97891.34
2022-09-20T18:14:15.675Z,97891.28
2022-09-20T18:16:44.195Z,97897.22
2022-09-20T18:19:11.073Z,97892.88
2022-09-20T18:21:38.242Z,97893.75
2022-09-20T18:24:05.523Z,97895.78
2022-09-20T18:26:32.734Z,97896.81
2022-09-20T18:29:02.226Z,97894.81
2022-09-20T18:31:44.610Z,97900.84
2022-09-20T18:34:17.753Z,97909.88
2022-09-20T18:36:52.853Z,97915.63
2022-09-20T18:39:20.501Z,97914.06
2022-09-20T18:41:47.582Z,97916.44
2022-09-20T18:44:14.387Z,97918.56
2022-09-20T18:46:41.538Z,97932.63
2022-09-20T18:49:09.361Z,97935.78
2022-09-20T18:51:39.677Z,97934.75
2022-09-20T18:54:09.027Z,97940.97
2022-09-20T18:56:36.169Z,97941.25
2022-09-20T18:59:06.123Z,97939.81
2022-09-20T19:01:52.609Z,97935.41
2022-09-20T19:04:31.317Z,97940.00
2022-09-20T19:07:03.954Z,97943.06
2022-09-20T19:09:45.641Z,97954.91
2022-09-20T19:12:34.060Z,97948.19
2022-09-20T19:15:00.469Z,97952.47
2022-09-20T19:17:39.272Z,97953.63
2022-09-20T19:20:19.673Z,97951.78
2022-09-20T19:23:01.767Z,97961.66
2022-09-20T19:25:32.669Z,97963.63
2022-09-20T19:27:59.160Z,97964.72
2022-09-20T19:30:25.784Z,97975.31
2022-09-20T19:32:52.323Z,97973.91
2022-09-20T19:35:21.877Z,97969.50
2022-09-20T19:38:15.358Z,97967.03
2022-09-20T19:40:46.421Z,97980.75
2022-09-20T19:43:25.278Z,97978.84
2022-09-20T19:46:13.270Z,97974.38
2022-09-20T19:48:48.573Z,97979.53
2022-09-20T19:51:16.951Z,97981.03
2022-09-20T19:53:43.561Z,97967.34
2022-09-20T19:56:12.849Z,97980.44
2022-09-20T19:58:44.943Z,97984.16
2022-09-20T20:01:11.741Z,97980.25
2022-09-20T20:03:38.945Z,97988.47
2022-09-20T20:06:20.380Z,97989.88
2022-09-20T20:08:54.948Z,97994.66
2022-09-20T20:11:40.203Z,97994.78
2022-09-20T20:14:11.937Z,97994.66
2022-09-20T20:16:57.329Z,97990.66
2022-09-20T20:19:44.773Z,97995.19
2022-09-20T20:22:14.182Z,97986.84
2022-09-20T20:24:50.033Z,97995.09
2022-09-20T20:27:16.452Z,97992.47
2022-09-20T20:29:42.893Z,97998.84
2022-09-20T20:32:09.795Z,97994.06
2022-09-20T20:34:37.032Z,98005.44
2022-09-20T20:37:04.926Z,98005.16
2022-09-20T20:39:32.103Z,97999.53
2022-09-20T20:42:02.295Z,98009.00
2022-09-20T20:44:35.977Z,98011.22
2022-09-20T20:47:06.282Z,98008.53
2022-09-20T20:49:33.157Z,98011.56
2022-09-20T20:52:04.508Z,98018.69
2022-09-20T20:54:31.817Z,98023.41
2022-09-20T20:56:59.114Z,98021.72
2022-09-20T20:59:25.780Z,98029.94
2022-09-20T21:01:52.260Z,98034.88
2022-09-20T21:04:18.737Z,98036.13
2022-09-20T21:06:45.243Z,98036.81
2022-09-20T21:09:12.413Z,98043.16
2022-09-20T21:11:43.654Z,98030.16
2022-09-20T21:14:10.663Z,98021.94
2022-09-20T21:16:38.201Z,98024.19
2022-09-20T21:19:05.633Z,98028.19
2022-09-20T21:21:33.450Z,98037.34
2022-09-20T21:24:01.383Z,98044.09
2022-09-20T21:26:31.866Z,98043.59
2022-09-20T21:28:59.582Z,98051.28
2022-09-20T21:31:27.730Z,98048.44
2022-09-20T21:33:55.450Z,98047.03
2022-09-20T21:36:22.921Z,98048.84
2022-09-20T21:38:49.449Z,98055.53
2022-09-20T21:41:17.715Z,98058.34
2022-09-20T21:43:45.735Z,98053.25
2022-09-20T21:46:17.654Z,98055.50
2022-09-20T21:48:44.392Z,98063.38
2022-09-20T21:51:12.043Z,98073.56
2022-09-20T21:53:39.325Z,98073.81
2022-09-20T21:56:07.203Z,98076.22
2022-09-20T21:58:34.139Z,98082.00
2022-09-20T22:01:02.228Z,98079.19
2022-09-20T22:03:35.415Z,98079.44
2022-09-20T22:06:06.165Z,98074.06
2022-09-20T22:08:33.137Z,98078.50
2022-09-20T22:10:59.606Z,98065.63
2022-09-20T22:13:26.022Z,98074.34
2022-09-20T22:15:52.568Z,98077.19
2022-09-20T22:18:19.029Z,98078.88
2022-09-20T22:20:45.544Z,98082.13
2022-09-20T22:23:12.010Z,98070.69
2022-09-20T22:25:38.413Z,98067.53
2022-09-20T22:28:04.830Z,98069.28
2022-09-20T22:30:31.294Z,98059.38
2022-09-20T22:32:57.741Z,98065.38
2022-09-20T22:35:24.365Z,98068.03
2022-09-20T22:37:50.812Z,98074.97
2022-09-20T22:40:17.298Z,98076.63
2022-09-20T22:42:43.736Z,98074.84
2022-09-20T22:45:10.406Z,98081.75
2022-09-20T22:47:36.845Z,98077.53
2022-09-20T22:50:03.323Z,98077.53
2022-09-20T22:52:29.845Z,98075.56
2022-09-20T22:54:56.406Z,98080.06
2022-09-20T22:57:22.846Z,98082.25
2022-09-20T22:59:49.278Z,98074.84
2022-09-20T23:02:15.691Z,98086.91
2022-09-20T23:04:42.106Z,98086.03
2022-09-20T23:07:08.902Z,98088.88
2022-09-20T23:09:35.361Z,98093.91
2022-09-20T23:12:01.824Z,98091.47
2022-09-20T23:14:28.265Z,98095.53
2022-09-20T23:16:54.693Z,98096.91
2022-09-20T23:19:21.216Z,98093.56
2022-09-20T23:21:47.670Z,98097.97
2022-09-20T23:24:15.078Z,98097.44
2022-09-20T23:26:42.222Z,98092.66
2022-09-20T23:29:10.896Z,98094.41
2022-09-20T23:31:38.284Z,98093.69
2022-09-20T23:34:06.308Z,98088.31
2022-09-20T23:36:34.052Z,98096.66
2022-09-20T23:39:00.607Z,98092.72
2022-09-20T23:41:27.774Z,98095.28
2022-09-20T23:43:54.393Z,98105.94
2022-09-20T23:46:22.229Z,98102.88
2022-09-20T23:48:50.390Z,98107.47
2022-09-20T23:51:18.661Z,98111.50
2022-09-20T23:53:45.106Z,98113.75
2022-09-20T23:56:12.401Z,98113.75
2022-09-20T23:58:39.909Z,98116.25
